sensor_id;sensor_type;location;lat;lon;timestamp;P1;durP1;ratioP1;P2;durP2;ratioP2
64500;SDS011;50874;24.150;-110.320;2024-01-16T00:02:10;37.22;;;3.88;;
64500;SDS011;50874;24.150;-110.320;2024-01-16T00:04:37;33.25;;;3.80;;
64500;SDS011;50874;24.150;-110.320;2024-01-16T00:07:05;28.38;;;4.20;;
64500;SDS011;50874;24.150;-110.320;2024-01-16T00:09:34;32.03;;;5.13;;
64500;SDS011;50874;24.150;-110.320;2024-01-16T00:12:04;47.00;;;6.00;;
64500;SDS011;50874;24.150;-110.320;2024-01-16T00:14:34;42.00;;;5.50;;
64500;SDS011;50874;24.150;-110.320;2024-01-16T00:17:03;40.40;;;5.10;;
64500;SDS011;50874;24.150;-110.320;2024-01-16T00:19:30;34.03;;;5.53;;
64500;SDS011;50874;24.150;-110.320;2024-01-16T00:21:57;51.72;;;5.25;;
64500;SDS011;50874;24.150;-110.320;2024-01-16T00:24:25;42.25;;;6.15;;
64500;SDS011;50874;24.150;-110.320;2024-01-16T00:26:52;25.10;;;4.05;;
64500;SDS011;50874;24.150;-110.320;2024-01-16T00:29:18;53.58;;;6.38;;
64500;SDS011;50874;24.150;-110.320;2024-01-16T00:31:45;49.20;;;6.55;;
64500;SDS011;50874;24.150;-110.320;2024-01-16T00:34:12;54.15;;;7.47;;
64500;SDS011;50874;24.150;-110.320;2024-01-16T00:36:38;93.07;;;10.77;;
64500;SDS011;50874;24.150;-110.320;2024-01-16T00:39:05;174.63;;;18.45;;
64500;SDS011;50874;24.150;-110.320;2024-01-16T00:41:32;46.22;;;6.10;;
64500;SDS011;50874;24.150;-110.320;2024-01-16T00:43:59;44.67;;;5.40;;
64500;SDS011;50874;24.150;-110.320;2024-01-16T00:46:25;13.70;;;2.50;;
64500;SDS011;50874;24.150;-110.320;2024-01-16T00:48:51;9.30;;;2.70;;
64500;SDS011;50874;24.150;-110.320;2024-01-16T00:51:18;16.38;;;2.83;;
64500;SDS011;50874;24.150;-110.320;2024-01-16T00:53:45;12.07;;;2.40;;
64500;SDS011;50874;24.150;-110.320;2024-01-16T00:56:11;95.38;;;11.35;;
64500;SDS011;50874;24.150;-110.320;2024-01-16T00:58:40;36.60;;;5.18;;
64500;SDS011;50874;24.150;-110.320;2024-01-16T01:01:07;16.52;;;2.45;;
64500;SDS011;50874;24.150;-110.320;2024-01-16T01:03:33;28.92;;;3.03;;
64500;SDS011;50874;24.150;-110.320;2024-01-16T01:06:00;49.95;;;5.60;;
64500;SDS011;50874;24.150;-110.320;2024-01-16T01:08:27;60.33;;;6.93;;
64500;SDS011;50874;24.150;-110.320;2024-01-16T01:10:53;108.38;;;9.68;;
64500;SDS011;50874;24.150;-110.320;2024-01-16T01:13:20;38.42;;;4.78;;
64500;SDS011;50874;24.150;-110.320;2024-01-16T01:15:46;34.00;;;5.38;;
64500;SDS011;50874;24.150;-110.320;2024-01-16T01:18:13;26.08;;;4.03;;
64500;SDS011;50874;24.150;-110.320;2024-01-16T01:20:39;35.50;;;3.60;;
64500;SDS011;50874;24.150;-110.320;2024-01-16T01:23:06;23.67;;;3.13;;
64500;SDS011;50874;24.150;-110.320;2024-01-16T01:25:33;16.48;;;2.30;;
64500;SDS011;50874;24.150;-110.320;2024-01-16T01:27:59;37.88;;;4.63;;
64500;SDS011;50874;24.150;-110.320;2024-01-16T01:30:25;20.77;;;2.70;;
64500;SDS011;50874;24.150;-110.320;2024-01-16T01:32:52;29.95;;;3.47;;
64500;SDS011;50874;24.150;-110.320;2024-01-16T01:35:18;27.73;;;3.83;;
64500;SDS011;50874;24.150;-110.320;2024-01-16T01:37:45;39.33;;;5.57;;
64500;SDS011;50874;24.150;-110.320;2024-01-16T01:40:12;25.50;;;4.00;;
64500;SDS011;50874;24.150;-110.320;2024-01-16T01:42:41;17.35;;;3.08;;
64500;SDS011;50874;24.150;-110.320;2024-01-16T01:45:09;18.00;;;3.25;;
64500;SDS011;50874;24.150;-110.320;2024-01-16T01:47:45;22.83;;;2.85;;
64500;SDS011;50874;24.150;-110.320;2024-01-16T01:50:11;31.15;;;4.13;;
64500;SDS011;50874;24.150;-110.320;2024-01-16T01:52:39;29.85;;;3.35;;
64500;SDS011;50874;24.150;-110.320;2024-01-16T01:55:07;25.05;;;3.00;;
64500;SDS011;50874;24.150;-110.320;2024-01-16T01:57:37;21.25;;;2.92;;
64500;SDS011;50874;24.150;-110.320;2024-01-16T02:00:05;16.23;;;3.72;;
64500;SDS011;50874;24.150;-110.320;2024-01-16T02:02:32;21.88;;;3.42;;
64500;SDS011;50874;24.150;-110.320;2024-01-16T02:04:58;57.05;;;5.95;;
64500;SDS011;50874;24.150;-110.320;2024-01-16T02:07:25;9.57;;;2.25;;
64500;SDS011;50874;24.150;-110.320;2024-01-16T02:09:51;10.48;;;2.70;;
64500;SDS011;50874;24.150;-110.320;2024-01-16T02:12:19;15.68;;;2.42;;
64500;SDS011;50874;24.150;-110.320;2024-01-16T02:14:45;18.50;;;2.95;;
64500;SDS011;50874;24.150;-110.320;2024-01-16T02:17:12;28.30;;;3.97;;
64500;SDS011;50874;24.150;-110.320;2024-01-16T02:19:38;22.60;;;3.60;;
64500;SDS011;50874;24.150;-110.320;2024-01-16T02:22:05;17.83;;;3.20;;
64500;SDS011;50874;24.150;-110.320;2024-01-16T02:24:36;26.23;;;3.30;;
64500;SDS011;50874;24.150;-110.320;2024-01-16T02:27:02;16.50;;;2.83;;
64500;SDS011;50874;24.150;-110.320;2024-01-16T02:29:29;19.00;;;2.80;;
64500;SDS011;50874;24.150;-110.320;2024-01-16T02:31:55;21.70;;;3.97;;
64500;SDS011;50874;24.150;-110.320;2024-01-16T02:34:22;19.80;;;2.53;;
64500;SDS011;50874;24.150;-110.320;2024-01-16T02:36:49;27.15;;;3.95;;
64500;SDS011;50874;24.150;-110.320;2024-01-16T02:39:16;14.80;;;2.67;;
64500;SDS011;50874;24.150;-110.320;2024-01-16T02:41:42;15.35;;;2.97;;
64500;SDS011;50874;24.150;-110.320;2024-01-16T02:44:09;29.10;;;4.60;;
64500;SDS011;50874;24.150;-110.320;2024-01-16T02:46:35;13.93;;;3.55;;
64500;SDS011;50874;24.150;-110.320;2024-01-16T02:49:04;18.42;;;3.42;;
64500;SDS011;50874;24.150;-110.320;2024-01-16T02:51:31;17.85;;;3.45;;
64500;SDS011;50874;24.150;-110.320;2024-01-16T02:53:58;35.63;;;5.20;;
64500;SDS011;50874;24.150;-110.320;2024-01-16T02:56:24;24.05;;;3.08;;
64500;SDS011;50874;24.150;-110.320;2024-01-16T02:58:51;22.58;;;3.10;;
64500;SDS011;50874;24.150;-110.320;2024-01-16T03:01:17;20.25;;;3.67;;
64500;SDS011;50874;24.150;-110.320;2024-01-16T03:03:44;15.38;;;2.88;;
64500;SDS011;50874;24.150;-110.320;2024-01-16T03:06:10;15.75;;;3.25;;
64500;SDS011;50874;24.150;-110.320;2024-01-16T03:08:50;24.92;;;4.32;;
64500;SDS011;50874;24.150;-110.320;2024-01-16T03:11:17;24.45;;;4.22;;
64500;SDS011;50874;24.150;-110.320;2024-01-16T03:13:43;21.98;;;3.53;;
64500;SDS011;50874;24.150;-110.320;2024-01-16T03:16:10;19.10;;;3.47;;
64500;SDS011;50874;24.150;-110.320;2024-01-16T03:18:37;18.98;;;3.10;;
64500;SDS011;50874;24.150;-110.320;2024-01-16T03:21:05;17.08;;;2.78;;
64500;SDS011;50874;24.150;-110.320;2024-01-16T03:23:31;47.40;;;5.65;;
64500;SDS011;50874;24.150;-110.320;2024-01-16T03:25:58;29.40;;;4.13;;
64500;SDS011;50874;24.150;-110.320;2024-01-16T03:28:24;9.90;;;2.75;;
64500;SDS011;50874;24.150;-110.320;2024-01-16T03:30:51;13.55;;;2.40;;
64500;SDS011;50874;24.150;-110.320;2024-01-16T03:33:17;9.90;;;3.00;;
64500;SDS011;50874;24.150;-110.320;2024-01-16T03:35:44;24.60;;;3.53;;
64500;SDS011;50874;24.150;-110.320;2024-01-16T03:38:10;10.73;;;3.30;;
64500;SDS011;50874;24.150;-110.320;2024-01-16T03:40:37;16.45;;;3.83;;
64500;SDS011;50874;24.150;-110.320;2024-01-16T03:43:03;10.35;;;3.05;;
64500;SDS011;50874;24.150;-110.320;2024-01-16T03:45:33;11.40;;;2.53;;
64500;SDS011;50874;24.150;-110.320;2024-01-16T03:47:59;9.23;;;2.80;;
64500;SDS011;50874;24.150;-110.320;2024-01-16T03:50:28;16.48;;;3.15;;
64500;SDS011;50874;24.150;-110.320;2024-01-16T03:52:54;16.17;;;2.83;;
64500;SDS011;50874;24.150;-110.320;2024-01-16T03:55:21;17.88;;;2.80;;
64500;SDS011;50874;24.150;-110.320;2024-01-16T03:57:47;12.07;;;2.75;;
64500;SDS011;50874;24.150;-110.320;2024-01-16T04:00:16;14.70;;;3.17;;
64500;SDS011;50874;24.150;-110.320;2024-01-16T04:02:42;10.23;;;2.08;;
64500;SDS011;50874;24.150;-110.320;2024-01-16T04:05:09;26.67;;;4.10;;
64500;SDS011;50874;24.150;-110.320;2024-01-16T04:07:36;15.20;;;3.00;;
64500;SDS011;50874;24.150;-110.320;2024-01-16T04:10:02;19.30;;;3.63;;
64500;SDS011;50874;24.150;-110.320;2024-01-16T04:12:30;13.27;;;3.30;;
64500;SDS011;50874;24.150;-110.320;2024-01-16T04:14:57;32.38;;;5.45;;
64500;SDS011;50874;24.150;-110.320;2024-01-16T04:17:23;35.95;;;4.07;;
64500;SDS011;50874;24.150;-110.320;2024-01-16T04:19:49;19.55;;;3.58;;
64500;SDS011;50874;24.150;-110.320;2024-01-16T04:22:16;24.88;;;3.55;;
64500;SDS011;50874;24.150;-110.320;2024-01-16T04:24:42;26.27;;;3.20;;
64500;SDS011;50874;24.150;-110.320;2024-01-16T04:27:10;31.65;;;3.10;;
64500;SDS011;50874;24.150;-110.320;2024-01-16T04:29:37;24.02;;;4.38;;
64500;SDS011;50874;24.150;-110.320;2024-01-16T04:32:04;24.73;;;4.10;;
64500;SDS011;50874;24.150;-110.320;2024-01-16T04:34:30;35.08;;;4.43;;
64500;SDS011;50874;24.150;-110.320;2024-01-16T04:36:57;20.27;;;3.83;;
64500;SDS011;50874;24.150;-110.320;2024-01-16T04:39:23;17.42;;;4.28;;
64500;SDS011;50874;24.150;-110.320;2024-01-16T04:41:50;37.05;;;4.35;;
64500;SDS011;50874;24.150;-110.320;2024-01-16T04:44:16;27.73;;;4.40;;
64500;SDS011;50874;24.150;-110.320;2024-01-16T04:46:43;16.95;;;4.13;;
64500;SDS011;50874;24.150;-110.320;2024-01-16T04:49:09;15.02;;;4.38;;
64500;SDS011;50874;24.150;-110.320;2024-01-16T04:51:36;22.45;;;4.50;;
64500;SDS011;50874;24.150;-110.320;2024-01-16T04:54:03;23.55;;;4.10;;
64500;SDS011;50874;24.150;-110.320;2024-01-16T04:56:29;24.00;;;3.83;;
64500;SDS011;50874;24.150;-110.320;2024-01-16T04:58:56;14.38;;;3.35;;
64500;SDS011;50874;24.150;-110.320;2024-01-16T05:01:22;27.80;;;4.63;;
64500;SDS011;50874;24.150;-110.320;2024-01-16T05:03:50;30.70;;;3.88;;
64500;SDS011;50874;24.150;-110.320;2024-01-16T05:06:16;39.83;;;5.55;;
64500;SDS011;50874;24.150;-110.320;2024-01-16T05:08:43;24.38;;;4.13;;
64500;SDS011;50874;24.150;-110.320;2024-01-16T05:11:09;18.15;;;3.28;;
64500;SDS011;50874;24.150;-110.320;2024-01-16T05:13:36;32.75;;;4.18;;
64500;SDS011;50874;24.150;-110.320;2024-01-16T05:16:03;14.50;;;2.95;;
64500;SDS011;50874;24.150;-110.320;2024-01-16T05:18:29;29.75;;;4.03;;
64500;SDS011;50874;24.150;-110.320;2024-01-16T05:20:58;25.88;;;3.72;;
64500;SDS011;50874;24.150;-110.320;2024-01-16T05:23:24;24.05;;;3.20;;
64500;SDS011;50874;24.150;-110.320;2024-01-16T05:25:51;14.27;;;3.13;;
64500;SDS011;50874;24.150;-110.320;2024-01-16T05:28:18;6.55;;;2.00;;
64500;SDS011;50874;24.150;-110.320;2024-01-16T05:30:44;15.80;;;2.75;;
64500;SDS011;50874;24.150;-110.320;2024-01-16T05:33:11;9.32;;;2.33;;
64500;SDS011;50874;24.150;-110.320;2024-01-16T05:35:37;8.40;;;1.90;;
64500;SDS011;50874;24.150;-110.320;2024-01-16T05:38:04;12.00;;;1.88;;
64500;SDS011;50874;24.150;-110.320;2024-01-16T05:40:30;12.15;;;2.80;;
64500;SDS011;50874;24.150;-110.320;2024-01-16T05:42:57;20.48;;;2.65;;
64500;SDS011;50874;24.150;-110.320;2024-01-16T05:45:23;11.85;;;2.65;;
64500;SDS011;50874;24.150;-110.320;2024-01-16T05:47:49;15.43;;;3.47;;
64500;SDS011;50874;24.150;-110.320;2024-01-16T05:50:16;15.90;;;3.15;;
64500;SDS011;50874;24.150;-110.320;2024-01-16T05:52:43;21.50;;;3.80;;
64500;SDS011;50874;24.150;-110.320;2024-01-16T05:55:10;26.85;;;3.55;;
64500;SDS011;50874;24.150;-110.320;2024-01-16T05:57:36;14.18;;;2.10;;
64500;SDS011;50874;24.150;-110.320;2024-01-16T06:00:03;12.57;;;2.38;;
64500;SDS011;50874;24.150;-110.320;2024-01-16T06:02:31;6.90;;;2.15;;
64500;SDS011;50874;24.150;-110.320;2024-01-16T06:04:57;15.02;;;2.50;;
64500;SDS011;50874;24.150;-110.320;2024-01-16T06:07:24;5.50;;;2.03;;
64500;SDS011;50874;24.150;-110.320;2024-01-16T06:09:51;6.18;;;2.00;;
64500;SDS011;50874;24.150;-110.320;2024-01-16T06:12:17;14.98;;;1.67;;
64500;SDS011;50874;24.150;-110.320;2024-01-16T06:14:43;11.70;;;2.10;;
64500;SDS011;50874;24.150;-110.320;2024-01-16T06:17:10;6.40;;;1.48;;
64500;SDS011;50874;24.150;-110.320;2024-01-16T06:19:36;7.72;;;2.03;;
64500;SDS011;50874;24.150;-110.320;2024-01-16T06:22:03;9.35;;;1.98;;
64500;SDS011;50874;24.150;-110.320;2024-01-16T06:24:30;9.07;;;2.10;;
64500;SDS011;50874;24.150;-110.320;2024-01-16T06:27:04;3.15;;;1.60;;
64500;SDS011;50874;24.150;-110.320;2024-01-16T06:29:34;8.43;;;1.80;;
64500;SDS011;50874;24.150;-110.320;2024-01-16T06:32:00;9.23;;;1.77;;
64500;SDS011;50874;24.150;-110.320;2024-01-16T06:34:27;10.25;;;2.42;;
64500;SDS011;50874;24.150;-110.320;2024-01-16T06:36:54;7.45;;;2.00;;
64500;SDS011;50874;24.150;-110.320;2024-01-16T06:39:20;8.02;;;2.00;;
64500;SDS011;50874;24.150;-110.320;2024-01-16T06:41:47;10.85;;;1.67;;
64500;SDS011;50874;24.150;-110.320;2024-01-16T06:44:13;18.02;;;2.67;;
64500;SDS011;50874;24.150;-110.320;2024-01-16T06:46:40;7.00;;;1.83;;
64500;SDS011;50874;24.150;-110.320;2024-01-16T06:49:06;8.70;;;2.17;;
64500;SDS011;50874;24.150;-110.320;2024-01-16T06:51:33;8.43;;;2.00;;
64500;SDS011;50874;24.150;-110.320;2024-01-16T06:53:59;12.98;;;1.85;;
64500;SDS011;50874;24.150;-110.320;2024-01-16T06:56:26;11.30;;;2.08;;
64500;SDS011;50874;24.150;-110.320;2024-01-16T06:58:52;6.95;;;1.90;;
64500;SDS011;50874;24.150;-110.320;2024-01-16T07:01:19;8.65;;;2.03;;
64500;SDS011;50874;24.150;-110.320;2024-01-16T07:03:45;7.53;;;2.10;;
64500;SDS011;50874;24.150;-110.320;2024-01-16T07:06:11;8.77;;;2.28;;
64500;SDS011;50874;24.150;-110.320;2024-01-16T07:08:38;8.75;;;2.20;;
64500;SDS011;50874;24.150;-110.320;2024-01-16T07:11:04;11.40;;;2.15;;
64500;SDS011;50874;24.150;-110.320;2024-01-16T07:13:34;12.00;;;1.77;;
64500;SDS011;50874;24.150;-110.320;2024-01-16T07:16:00;10.85;;;1.95;;
64500;SDS011;50874;24.150;-110.320;2024-01-16T07:18:27;4.53;;;1.77;;
64500;SDS011;50874;24.150;-110.320;2024-01-16T07:20:53;7.95;;;1.85;;
64500;SDS011;50874;24.150;-110.320;2024-01-16T07:23:20;4.18;;;1.55;;
64500;SDS011;50874;24.150;-110.320;2024-01-16T07:25:46;12.10;;;2.17;;
64500;SDS011;50874;24.150;-110.320;2024-01-16T07:28:13;5.20;;;1.73;;
64500;SDS011;50874;24.150;-110.320;2024-01-16T07:30:40;8.52;;;2.20;;
64500;SDS011;50874;24.150;-110.320;2024-01-16T07:33:06;4.95;;;1.23;;
64500;SDS011;50874;24.150;-110.320;2024-01-16T07:35:33;6.68;;;1.55;;
64500;SDS011;50874;24.150;-110.320;2024-01-16T07:37:59;5.68;;;1.15;;
64500;SDS011;50874;24.150;-110.320;2024-01-16T07:40:26;8.48;;;1.83;;
64500;SDS011;50874;24.150;-110.320;2024-01-16T07:42:52;3.72;;;1.33;;
64500;SDS011;50874;24.150;-110.320;2024-01-16T07:45:19;3.65;;;1.30;;
64500;SDS011;50874;24.150;-110.320;2024-01-16T07:47:45;9.70;;;1.92;;
64500;SDS011;50874;24.150;-110.320;2024-01-16T07:50:12;8.68;;;2.15;;
64500;SDS011;50874;24.150;-110.320;2024-01-16T07:52:39;4.72;;;1.90;;
64500;SDS011;50874;24.150;-110.320;2024-01-16T07:55:06;12.25;;;2.35;;
64500;SDS011;50874;24.150;-110.320;2024-01-16T07:57:32;13.38;;;2.90;;
64500;SDS011;50874;24.150;-110.320;2024-01-16T07:59:59;13.63;;;2.13;;
64500;SDS011;50874;24.150;-110.320;2024-01-16T08:02:34;12.57;;;2.35;;
64500;SDS011;50874;24.150;-110.320;2024-01-16T08:05:02;10.30;;;1.80;;
64500;SDS011;50874;24.150;-110.320;2024-01-16T08:07:29;5.82;;;1.63;;
64500;SDS011;50874;24.150;-110.320;2024-01-16T08:09:56;9.52;;;1.60;;
64500;SDS011;50874;24.150;-110.320;2024-01-16T08:12:23;3.78;;;1.77;;
64500;SDS011;50874;24.150;-110.320;2024-01-16T08:14:49;10.02;;;1.80;;
64500;SDS011;50874;24.150;-110.320;2024-01-16T08:17:16;2.80;;;1.90;;
64500;SDS011;50874;24.150;-110.320;2024-01-16T08:19:43;12.95;;;2.00;;
64500;SDS011;50874;24.150;-110.320;2024-01-16T08:22:09;2.10;;;1.50;;
64500;SDS011;50874;24.150;-110.320;2024-01-16T08:24:36;8.18;;;1.80;;
64500;SDS011;50874;24.150;-110.320;2024-01-16T08:27:03;7.50;;;1.42;;
64500;SDS011;50874;24.150;-110.320;2024-01-16T08:29:29;11.18;;;1.63;;
64500;SDS011;50874;24.150;-110.320;2024-01-16T08:31:56;7.35;;;1.60;;
64500;SDS011;50874;24.150;-110.320;2024-01-16T08:34:22;5.70;;;1.42;;
64500;SDS011;50874;24.150;-110.320;2024-01-16T08:36:48;7.45;;;1.65;;
64500;SDS011;50874;24.150;-110.320;2024-01-16T08:39:15;6.38;;;1.60;;
64500;SDS011;50874;24.150;-110.320;2024-01-16T08:41:43;7.75;;;1.67;;
64500;SDS011;50874;24.150;-110.320;2024-01-16T08:44:11;9.70;;;1.75;;
64500;SDS011;50874;24.150;-110.320;2024-01-16T08:46:37;9.90;;;1.42;;
64500;SDS011;50874;24.150;-110.320;2024-01-16T08:49:04;3.85;;;1.23;;
64500;SDS011;50874;24.150;-110.320;2024-01-16T08:51:30;9.32;;;2.08;;
64500;SDS011;50874;24.150;-110.320;2024-01-16T08:53:56;11.45;;;1.98;;
64500;SDS011;50874;24.150;-110.320;2024-01-16T08:56:23;5.28;;;1.52;;
64500;SDS011;50874;24.150;-110.320;2024-01-16T08:58:49;5.05;;;2.13;;
64500;SDS011;50874;24.150;-110.320;2024-01-16T09:01:16;9.30;;;1.70;;
64500;SDS011;50874;24.150;-110.320;2024-01-16T09:03:42;6.65;;;1.55;;
64500;SDS011;50874;24.150;-110.320;2024-01-16T09:06:09;7.93;;;1.50;;
64500;SDS011;50874;24.150;-110.320;2024-01-16T09:08:36;7.32;;;1.58;;
64500;SDS011;50874;24.150;-110.320;2024-01-16T09:11:02;4.57;;;1.58;;
64500;SDS011;50874;24.150;-110.320;2024-01-16T09:13:29;6.90;;;1.52;;
64500;SDS011;50874;24.150;-110.320;2024-01-16T09:15:56;8.38;;;1.50;;
64500;SDS011;50874;24.150;-110.320;2024-01-16T09:18:22;7.15;;;2.10;;
64500;SDS011;50874;24.150;-110.320;2024-01-16T09:20:48;3.92;;;1.42;;
64500;SDS011;50874;24.150;-110.320;2024-01-16T09:23:15;3.67;;;1.77;;
64500;SDS011;50874;24.150;-110.320;2024-01-16T09:25:41;8.10;;;1.70;;
64500;SDS011;50874;24.150;-110.320;2024-01-16T09:28:08;7.90;;;1.50;;
64500;SDS011;50874;24.150;-110.320;2024-01-16T09:30:34;6.60;;;1.90;;
64500;SDS011;50874;24.150;-110.320;2024-01-16T09:33:01;9.10;;;2.53;;
64500;SDS011;50874;24.150;-110.320;2024-01-16T09:35:29;8.10;;;3.65;;
64500;SDS011;50874;24.150;-110.320;2024-01-16T09:37:56;10.73;;;4.03;;
64500;SDS011;50874;24.150;-110.320;2024-01-16T09:40:22;8.13;;;2.85;;
64500;SDS011;50874;24.150;-110.320;2024-01-16T09:42:49;16.25;;;4.43;;
64500;SDS011;50874;24.150;-110.320;2024-01-16T09:45:19;9.48;;;1.98;;
64500;SDS011;50874;24.150;-110.320;2024-01-16T09:47:49;11.77;;;1.85;;
64500;SDS011;50874;24.150;-110.320;2024-01-16T09:50:17;4.75;;;1.52;;
64500;SDS011;50874;24.150;-110.320;2024-01-16T09:52:47;3.78;;;1.50;;
64500;SDS011;50874;24.150;-110.320;2024-01-16T09:55:14;8.00;;;1.67;;
64500;SDS011;50874;24.150;-110.320;2024-01-16T09:57:41;6.63;;;1.60;;
64500;SDS011;50874;24.150;-110.320;2024-01-16T10:00:11;3.97;;;1.48;;
64500;SDS011;50874;24.150;-110.320;2024-01-16T10:02:42;10.02;;;2.50;;
64500;SDS011;50874;24.150;-110.320;2024-01-16T10:05:09;7.18;;;1.90;;
64500;SDS011;50874;24.150;-110.320;2024-01-16T10:07:42;4.90;;;1.35;;
64500;SDS011;50874;24.150;-110.320;2024-01-16T10:10:12;6.68;;;1.77;;
64500;SDS011;50874;24.150;-110.320;2024-01-16T10:12:39;10.48;;;2.40;;
64500;SDS011;50874;24.150;-110.320;2024-01-16T10:15:06;13.80;;;2.88;;
64500;SDS011;50874;24.150;-110.320;2024-01-16T10:20:08;6.03;;;1.95;;
64500;SDS011;50874;24.150;-110.320;2024-01-16T10:22:41;6.18;;;2.28;;
64500;SDS011;50874;24.150;-110.320;2024-01-16T10:25:22;8.52;;;1.98;;
64500;SDS011;50874;24.150;-110.320;2024-01-16T10:27:49;4.03;;;1.70;;
64500;SDS011;50874;24.150;-110.320;2024-01-16T10:30:27;7.15;;;1.88;;
64500;SDS011;50874;24.150;-110.320;2024-01-16T10:32:54;7.00;;;2.35;;
64500;SDS011;50874;24.150;-110.320;2024-01-16T10:35:22;6.85;;;2.22;;
64500;SDS011;50874;24.150;-110.320;2024-01-16T10:37:49;6.75;;;2.40;;
64500;SDS011;50874;24.150;-110.320;2024-01-16T10:40:17;7.45;;;2.13;;
64500;SDS011;50874;24.150;-110.320;2024-01-16T10:42:45;6.55;;;1.90;;
64500;SDS011;50874;24.150;-110.320;2024-01-16T10:45:22;12.88;;;2.72;;
64500;SDS011;50874;24.150;-110.320;2024-01-16T10:48:09;7.25;;;2.22;;
64500;SDS011;50874;24.150;-110.320;2024-01-16T10:50:36;6.47;;;2.45;;
64500;SDS011;50874;24.150;-110.320;2024-01-16T10:53:05;11.02;;;2.35;;
64500;SDS011;50874;24.150;-110.320;2024-01-16T10:58:23;7.05;;;1.90;;
64500;SDS011;50874;24.150;-110.320;2024-01-16T11:00:53;4.82;;;1.77;;
64500;SDS011;50874;24.150;-110.320;2024-01-16T11:06:19;4.15;;;1.27;;
64500;SDS011;50874;24.150;-110.320;2024-01-16T11:08:47;11.40;;;1.60;;
64500;SDS011;50874;24.150;-110.320;2024-01-16T11:11:15;7.68;;;1.38;;
64500;SDS011;50874;24.150;-110.320;2024-01-16T11:13:42;4.80;;;1.40;;
64500;SDS011;50874;24.150;-110.320;2024-01-16T11:16:11;7.32;;;1.65;;
64500;SDS011;50874;24.150;-110.320;2024-01-16T11:18:38;7.93;;;1.50;;
64500;SDS011;50874;24.150;-110.320;2024-01-16T11:21:06;7.53;;;1.40;;
64500;SDS011;50874;24.150;-110.320;2024-01-16T11:23:35;9.13;;;1.70;;
64500;SDS011;50874;24.150;-110.320;2024-01-16T11:28:58;9.70;;;1.75;;
64500;SDS011;50874;24.150;-110.320;2024-01-16T11:31:32;6.70;;;1.83;;
64500;SDS011;50874;24.150;-110.320;2024-01-16T11:34:00;8.35;;;1.63;;
64500;SDS011;50874;24.150;-110.320;2024-01-16T11:39:20;6.28;;;1.90;;
64500;SDS011;50874;24.150;-110.320;2024-01-16T11:47:07;7.38;;;2.25;;
64500;SDS011;50874;24.150;-110.320;2024-01-16T11:49:37;8.55;;;1.80;;
64500;SDS011;50874;24.150;-110.320;2024-01-16T11:52:05;10.15;;;2.35;;
64500;SDS011;50874;24.150;-110.320;2024-01-16T11:54:33;10.15;;;2.30;;
64500;SDS011;50874;24.150;-110.320;2024-01-16T11:59:58;7.28;;;1.95;;
64500;SDS011;50874;24.150;-110.320;2024-01-16T12:02:36;8.93;;;2.58;;
64500;SDS011;50874;24.150;-110.320;2024-01-16T12:05:13;6.75;;;2.50;;
64500;SDS011;50874;24.150;-110.320;2024-01-16T12:07:46;8.32;;;2.53;;
64500;SDS011;50874;24.150;-110.320;2024-01-16T12:10:17;11.88;;;3.00;;
64500;SDS011;50874;24.150;-110.320;2024-01-16T12:12:45;8.73;;;2.65;;
64500;SDS011;50874;24.150;-110.320;2024-01-16T12:15:16;7.88;;;2.45;;
64500;SDS011;50874;24.150;-110.320;2024-01-16T12:17:53;6.28;;;1.70;;
64500;SDS011;50874;24.150;-110.320;2024-01-16T12:20:20;16.08;;;2.30;;
64500;SDS011;50874;24.150;-110.320;2024-01-16T12:22:57;16.50;;;2.00;;
64500;SDS011;50874;24.150;-110.320;2024-01-16T12:25:27;12.65;;;2.30;;
64500;SDS011;50874;24.150;-110.320;2024-01-16T12:27:58;8.52;;;2.10;;
64500;SDS011;50874;24.150;-110.320;2024-01-16T12:30:26;7.43;;;1.42;;
64500;SDS011;50874;24.150;-110.320;2024-01-16T12:38:08;10.88;;;2.28;;
64500;SDS011;50874;24.150;-110.320;2024-01-16T12:40:36;11.30;;;1.88;;
64500;SDS011;50874;24.150;-110.320;2024-01-16T12:43:06;14.32;;;1.83;;
64500;SDS011;50874;24.150;-110.320;2024-01-16T12:45:34;16.05;;;2.40;;
64500;SDS011;50874;24.150;-110.320;2024-01-16T12:48:01;10.98;;;2.08;;
64500;SDS011;50874;24.150;-110.320;2024-01-16T12:50:31;8.95;;;2.10;;
64500;SDS011;50874;24.150;-110.320;2024-01-16T12:53:02;14.73;;;2.25;;
64500;SDS011;50874;24.150;-110.320;2024-01-16T12:55:34;15.88;;;2.30;;
64500;SDS011;50874;24.150;-110.320;2024-01-16T12:58:18;13.57;;;2.60;;
64500;SDS011;50874;24.150;-110.320;2024-01-16T13:00:49;14.43;;;2.80;;
64500;SDS011;50874;24.150;-110.320;2024-01-16T13:03:20;14.70;;;2.13;;
64500;SDS011;50874;24.150;-110.320;2024-01-16T13:05:57;14.13;;;3.35;;
64500;SDS011;50874;24.150;-110.320;2024-01-16T13:08:29;14.30;;;2.90;;
64500;SDS011;50874;24.150;-110.320;2024-01-16T13:11:05;7.38;;;2.25;;
64500;SDS011;50874;24.150;-110.320;2024-01-16T13:13:33;14.15;;;2.50;;
64500;SDS011;50874;24.150;-110.320;2024-01-16T13:16:00;9.88;;;2.58;;
64500;SDS011;50874;24.150;-110.320;2024-01-16T13:18:30;8.18;;;2.35;;
64500;SDS011;50874;24.150;-110.320;2024-01-16T13:20:57;4.80;;;2.10;;
64500;SDS011;50874;24.150;-110.320;2024-01-16T13:23:24;8.88;;;2.03;;
64500;SDS011;50874;24.150;-110.320;2024-01-16T13:25:52;10.30;;;2.38;;
64500;SDS011;50874;24.150;-110.320;2024-01-16T13:28:29;14.48;;;2.55;;
64500;SDS011;50874;24.150;-110.320;2024-01-16T13:30:56;7.53;;;2.05;;
64500;SDS011;50874;24.150;-110.320;2024-01-16T13:33:23;11.90;;;2.42;;
64500;SDS011;50874;24.150;-110.320;2024-01-16T13:35:52;11.80;;;2.33;;
64500;SDS011;50874;24.150;-110.320;2024-01-16T13:38:22;11.57;;;2.63;;
64500;SDS011;50874;24.150;-110.320;2024-01-16T13:40:49;8.93;;;2.20;;
64500;SDS011;50874;24.150;-110.320;2024-01-16T13:43:15;15.23;;;3.28;;
64500;SDS011;50874;24.150;-110.320;2024-01-16T13:45:42;10.52;;;2.50;;
64500;SDS011;50874;24.150;-110.320;2024-01-16T13:48:08;10.80;;;2.55;;
64500;SDS011;50874;24.150;-110.320;2024-01-16T13:50:35;7.57;;;2.05;;
64500;SDS011;50874;24.150;-110.320;2024-01-16T13:53:01;9.75;;;2.53;;
64500;SDS011;50874;24.150;-110.320;2024-01-16T13:55:28;12.27;;;3.15;;
64500;SDS011;50874;24.150;-110.320;2024-01-16T13:57:57;9.27;;;2.15;;
64500;SDS011;50874;24.150;-110.320;2024-01-16T14:00:24;15.13;;;3.42;;
64500;SDS011;50874;24.150;-110.320;2024-01-16T14:02:50;22.05;;;3.25;;
64500;SDS011;50874;24.150;-110.320;2024-01-16T14:05:18;31.13;;;3.60;;
64500;SDS011;50874;24.150;-110.320;2024-01-16T14:07:45;22.42;;;3.72;;
64500;SDS011;50874;24.150;-110.320;2024-01-16T14:10:16;14.85;;;3.75;;
64500;SDS011;50874;24.150;-110.320;2024-01-16T14:12:45;12.57;;;3.60;;
64500;SDS011;50874;24.150;-110.320;2024-01-16T14:15:13;15.05;;;3.88;;
64500;SDS011;50874;24.150;-110.320;2024-01-16T14:17:47;17.17;;;3.50;;
64500;SDS011;50874;24.150;-110.320;2024-01-16T14:20:15;10.15;;;3.08;;
64500;SDS011;50874;24.150;-110.320;2024-01-16T14:22:43;19.92;;;3.05;;
64500;SDS011;50874;24.150;-110.320;2024-01-16T14:25:10;29.70;;;4.82;;
64500;SDS011;50874;24.150;-110.320;2024-01-16T14:27:41;12.73;;;3.47;;
64500;SDS011;50874;24.150;-110.320;2024-01-16T14:30:13;11.95;;;3.70;;
64500;SDS011;50874;24.150;-110.320;2024-01-16T14:32:44;10.13;;;2.60;;